sensor_id;sensor_type;location;lat;lon;timestamp;P1;durP1;ratioP1;P2;durP2;ratioP2
12798;SDS011;19250;42.646;26.980;2022-11-15T00:01:53;43.28;;;28.88;;
12798;SDS011;19250;42.646;26.980;2022-11-15T00:04:20;46.35;;;31.33;;
12798;SDS011;19250;42.646;26.980;2022-11-15T00:06:49;43.33;;;29.05;;
12798;SDS011;19250;42.646;26.980;2022-11-15T00:09:16;39.30;;;29.23;;
12798;SDS011;19250;42.646;26.980;2022-11-15T00:11:43;47.97;;;31.30;;
12798;SDS011;19250;42.646;26.980;2022-11-15T00:14:10;43.70;;;30.33;;
12798;SDS011;19250;42.646;26.980;2022-11-15T00:16:37;43.23;;;30.00;;
12798;SDS011;19250;42.646;26.980;2022-11-15T00:19:05;40.15;;;29.23;;
12798;SDS011;19250;42.646;26.980;2022-11-15T00:21:32;41.85;;;27.95;;
12798;SDS011;19250;42.646;26.980;2022-11-15T00:24:00;47.63;;;30.35;;
12798;SDS011;19250;42.646;26.980;2022-11-15T00:26:28;49.38;;;31.92;;
12798;SDS011;19250;42.646;26.980;2022-11-15T00:28:55;45.92;;;30.50;;
12798;SDS011;19250;42.646;26.980;2022-11-15T00:31:22;45.80;;;30.13;;
12798;SDS011;19250;42.646;26.980;2022-11-15T00:33:50;46.38;;;30.92;;
12798;SDS011;19250;42.646;26.980;2022-11-15T00:36:17;44.38;;;29.35;;
12798;SDS011;19250;42.646;26.980;2022-11-15T00:38:44;45.10;;;29.40;;
12798;SDS011;19250;42.646;26.980;2022-11-15T00:41:13;43.25;;;28.65;;
12798;SDS011;19250;42.646;26.980;2022-11-15T00:43:40;46.72;;;30.05;;
12798;SDS011;19250;42.646;26.980;2022-11-15T00:46:08;44.33;;;28.88;;
12798;SDS011;19250;42.646;26.980;2022-11-15T00:48:36;46.42;;;29.88;;
12798;SDS011;19250;42.646;26.980;2022-11-15T00:51:03;44.45;;;29.75;;
12798;SDS011;19250;42.646;26.980;2022-11-15T00:53:30;48.72;;;29.83;;
12798;SDS011;19250;42.646;26.980;2022-11-15T00:55:58;47.13;;;30.20;;
12798;SDS011;19250;42.646;26.980;2022-11-15T00:58:26;45.38;;;29.88;;
12798;SDS011;19250;42.646;26.980;2022-11-15T01:00:53;50.77;;;32.47;;
12798;SDS011;19250;42.646;26.980;2022-11-15T01:03:21;51.55;;;31.98;;
12798;SDS011;19250;42.646;26.980;2022-11-15T01:05:48;57.22;;;34.17;;
12798;SDS011;19250;42.646;26.980;2022-11-15T01:08:15;59.53;;;36.67;;
12798;SDS011;19250;42.646;26.980;2022-11-15T01:10:43;64.28;;;39.53;;
12798;SDS011;19250;42.646;26.980;2022-11-15T01:13:10;56.50;;;36.35;;
12798;SDS011;19250;42.646;26.980;2022-11-15T01:15:40;51.73;;;30.90;;
12798;SDS011;19250;42.646;26.980;2022-11-15T01:18:07;46.15;;;28.80;;
12798;SDS011;19250;42.646;26.980;2022-11-15T01:20:38;46.53;;;28.17;;
12798;SDS011;19250;42.646;26.980;2022-11-15T01:23:06;49.67;;;29.35;;
12798;SDS011;19250;42.646;26.980;2022-11-15T01:25:33;48.47;;;29.23;;
12798;SDS011;19250;42.646;26.980;2022-11-15T01:28:00;50.17;;;29.40;;
12798;SDS011;19250;42.646;26.980;2022-11-15T01:30:28;53.95;;;30.50;;
12798;SDS011;19250;42.646;26.980;2022-11-15T01:32:56;46.38;;;28.27;;
12798;SDS011;19250;42.646;26.980;2022-11-15T01:35:23;46.23;;;27.77;;
12798;SDS011;19250;42.646;26.980;2022-11-15T01:37:51;48.10;;;27.67;;
12798;SDS011;19250;42.646;26.980;2022-11-15T01:40:18;50.10;;;28.65;;
12798;SDS011;19250;42.646;26.980;2022-11-15T01:42:45;49.50;;;28.40;;
12798;SDS011;19250;42.646;26.980;2022-11-15T01:45:12;51.60;;;29.07;;
12798;SDS011;19250;42.646;26.980;2022-11-15T01:47:42;52.28;;;29.33;;
12798;SDS011;19250;42.646;26.980;2022-11-15T01:50:17;48.10;;;27.45;;
12798;SDS011;19250;42.646;26.980;2022-11-15T01:52:48;51.70;;;29.45;;
12798;SDS011;19250;42.646;26.980;2022-11-15T01:55:17;52.13;;;28.85;;
12798;SDS011;19250;42.646;26.980;2022-11-15T01:57:46;51.83;;;29.00;;
12798;SDS011;19250;42.646;26.980;2022-11-15T02:00:17;47.35;;;29.10;;
12798;SDS011;19250;42.646;26.980;2022-11-15T02:02:44;46.88;;;28.25;;
12798;SDS011;19250;42.646;26.980;2022-11-15T02:05:11;43.75;;;26.40;;
12798;SDS011;19250;42.646;26.980;2022-11-15T02:07:40;42.22;;;25.33;;
12798;SDS011;19250;42.646;26.980;2022-11-15T02:10:08;43.90;;;25.57;;
12798;SDS011;19250;42.646;26.980;2022-11-15T02:12:37;40.78;;;25.42;;
12798;SDS011;19250;42.646;26.980;2022-11-15T02:15:05;41.72;;;25.10;;
12798;SDS011;19250;42.646;26.980;2022-11-15T02:17:39;41.88;;;24.67;;
12798;SDS011;19250;42.646;26.980;2022-11-15T02:26:43;47.92;;;28.35;;
12798;SDS011;19250;42.646;26.980;2022-11-15T02:29:27;46.75;;;27.45;;
12798;SDS011;19250;42.646;26.980;2022-11-15T02:32:10;44.30;;;27.10;;
12798;SDS011;19250;42.646;26.980;2022-11-15T02:34:45;40.10;;;25.13;;
12798;SDS011;19250;42.646;26.980;2022-11-15T02:37:22;38.10;;;24.77;;
12798;SDS011;19250;42.646;26.980;2022-11-15T02:39:58;45.50;;;27.00;;
12798;SDS011;19250;42.646;26.980;2022-11-15T02:42:33;48.75;;;28.55;;
12798;SDS011;19250;42.646;26.980;2022-11-15T02:45:23;50.30;;;28.98;;
12798;SDS011;19250;42.646;26.980;2022-11-15T02:47:55;50.03;;;28.73;;
12798;SDS011;19250;42.646;26.980;2022-11-15T02:50:26;51.57;;;28.93;;
12798;SDS011;19250;42.646;26.980;2022-11-15T02:52:56;45.47;;;27.38;;
12798;SDS011;19250;42.646;26.980;2022-11-15T02:55:27;50.80;;;29.30;;
12798;SDS011;19250;42.646;26.980;2022-11-15T02:58:00;46.23;;;27.77;;
12798;SDS011;19250;42.646;26.980;2022-11-15T03:00:35;48.40;;;28.38;;
12798;SDS011;19250;42.646;26.980;2022-11-15T03:03:13;45.45;;;26.60;;
12798;SDS011;19250;42.646;26.980;2022-11-15T03:05:56;43.55;;;26.65;;
12798;SDS011;19250;42.646;26.980;2022-11-15T03:08:36;45.83;;;26.67;;
12798;SDS011;19250;42.646;26.980;2022-11-15T03:11:12;44.78;;;26.60;;
12798;SDS011;19250;42.646;26.980;2022-11-15T03:13:43;40.95;;;24.77;;
12798;SDS011;19250;42.646;26.980;2022-11-15T03:16:18;30.17;;;18.77;;
12798;SDS011;19250;42.646;26.980;2022-11-15T03:18:52;24.33;;;16.95;;
12798;SDS011;19250;42.646;26.980;2022-11-15T03:21:22;18.20;;;13.70;;
12798;SDS011;19250;42.646;26.980;2022-11-15T03:23:51;16.95;;;12.52;;
12798;SDS011;19250;42.646;26.980;2022-11-15T03:26:20;15.50;;;12.68;;
12798;SDS011;19250;42.646;26.980;2022-11-15T03:28:50;16.55;;;12.88;;
12798;SDS011;19250;42.646;26.980;2022-11-15T03:31:22;18.60;;;14.27;;
12798;SDS011;19250;42.646;26.980;2022-11-15T03:34:11;18.13;;;13.77;;
12798;SDS011;19250;42.646;26.980;2022-11-15T03:36:43;19.90;;;14.27;;
12798;SDS011;19250;42.646;26.980;2022-11-15T03:39:11;17.05;;;13.27;;
12798;SDS011;19250;42.646;26.980;2022-11-15T03:41:42;15.90;;;12.80;;
12798;SDS011;19250;42.646;26.980;2022-11-15T03:44:15;16.73;;;12.97;;
12798;SDS011;19250;42.646;26.980;2022-11-15T03:46:51;17.30;;;13.17;;
12798;SDS011;19250;42.646;26.980;2022-11-15T03:49:29;17.58;;;13.88;;
12798;SDS011;19250;42.646;26.980;2022-11-15T03:52:00;16.88;;;13.35;;
12798;SDS011;19250;42.646;26.980;2022-11-15T03:54:30;17.00;;;13.23;;
12798;SDS011;19250;42.646;26.980;2022-11-15T03:56:57;16.65;;;13.38;;
12798;SDS011;19250;42.646;26.980;2022-11-15T03:59:25;16.13;;;12.65;;
12798;SDS011;19250;42.646;26.980;2022-11-15T04:05:15;15.07;;;12.50;;
12798;SDS011;19250;42.646;26.980;2022-11-15T04:07:42;14.27;;;12.07;;
12798;SDS011;19250;42.646;26.980;2022-11-15T04:10:10;15.68;;;12.65;;
12798;SDS011;19250;42.646;26.980;2022-11-15T04:12:38;15.65;;;12.43;;
12798;SDS011;19250;42.646;26.980;2022-11-15T04:15:09;12.60;;;11.23;;
12798;SDS011;19250;42.646;26.980;2022-11-15T04:17:38;14.68;;;11.63;;
12798;SDS011;19250;42.646;26.980;2022-11-15T04:20:07;13.50;;;11.40;;
12798;SDS011;19250;42.646;26.980;2022-11-15T04:22:56;16.53;;;12.90;;
12798;SDS011;19250;42.646;26.980;2022-11-15T04:25:41;15.70;;;12.40;;
12798;SDS011;19250;42.646;26.980;2022-11-15T04:28:11;15.95;;;12.50;;
12798;SDS011;19250;42.646;26.980;2022-11-15T04:30:38;16.65;;;12.88;;
12798;SDS011;19250;42.646;26.980;2022-11-15T04:33:06;16.23;;;13.32;;
12798;SDS011;19250;42.646;26.980;2022-11-15T04:35:33;17.00;;;13.30;;
12798;SDS011;19250;42.646;26.980;2022-11-15T04:38:02;16.48;;;13.25;;
12798;SDS011;19250;42.646;26.980;2022-11-15T04:40:31;17.88;;;14.35;;
12798;SDS011;19250;42.646;26.980;2022-11-15T04:42:58;19.50;;;15.38;;
12798;SDS011;19250;42.646;26.980;2022-11-15T04:45:25;16.20;;;12.70;;
12798;SDS011;19250;42.646;26.980;2022-11-15T04:47:53;18.05;;;14.40;;
12798;SDS011;19250;42.646;26.980;2022-11-15T04:50:20;17.87;;;13.27;;
12798;SDS011;19250;42.646;26.980;2022-11-15T04:52:50;17.58;;;13.02;;
12798;SDS011;19250;42.646;26.980;2022-11-15T04:55:19;17.40;;;13.77;;
12798;SDS011;19250;42.646;26.980;2022-11-15T04:57:47;19.05;;;14.40;;
12798;SDS011;19250;42.646;26.980;2022-11-15T05:00:15;17.67;;;12.93;;
12798;SDS011;19250;42.646;26.980;2022-11-15T05:02:43;19.08;;;13.57;;
12798;SDS011;19250;42.646;26.980;2022-11-15T05:05:33;19.70;;;14.20;;
12798;SDS011;19250;42.646;26.980;2022-11-15T05:08:00;20.73;;;14.70;;
12798;SDS011;19250;42.646;26.980;2022-11-15T05:10:29;17.45;;;13.95;;
12798;SDS011;19250;42.646;26.980;2022-11-15T05:12:56;19.55;;;14.40;;
12798;SDS011;19250;42.646;26.980;2022-11-15T05:15:23;18.10;;;14.07;;
12798;SDS011;19250;42.646;26.980;2022-11-15T05:17:51;19.33;;;14.35;;
12798;SDS011;19250;42.646;26.980;2022-11-15T05:20:23;17.15;;;13.05;;
12798;SDS011;19250;42.646;26.980;2022-11-15T05:22:50;19.15;;;13.77;;
12798;SDS011;19250;42.646;26.980;2022-11-15T05:25:18;19.00;;;14.70;;
12798;SDS011;19250;42.646;26.980;2022-11-15T05:27:47;20.05;;;14.82;;
12798;SDS011;19250;42.646;26.980;2022-11-15T05:30:15;18.27;;;14.07;;
12798;SDS011;19250;42.646;26.980;2022-11-15T05:32:42;17.52;;;14.10;;
12798;SDS011;19250;42.646;26.980;2022-11-15T05:35:11;24.05;;;19.15;;
12798;SDS011;19250;42.646;26.980;2022-11-15T05:37:42;20.85;;;16.77;;
12798;SDS011;19250;42.646;26.980;2022-11-15T05:40:09;23.38;;;17.45;;
12798;SDS011;19250;42.646;26.980;2022-11-15T05:42:36;23.00;;;16.73;;
12798;SDS011;19250;42.646;26.980;2022-11-15T05:45:06;32.42;;;25.63;;
12798;SDS011;19250;42.646;26.980;2022-11-15T05:47:35;17.67;;;15.02;;
12798;SDS011;19250;42.646;26.980;2022-11-15T05:50:04;80.78;;;55.72;;
12798;SDS011;19250;42.646;26.980;2022-11-15T05:52:34;73.20;;;51.88;;
12798;SDS011;19250;42.646;26.980;2022-11-15T05:55:04;20.15;;;17.10;;
12798;SDS011;19250;42.646;26.980;2022-11-15T05:57:34;23.60;;;18.77;;
12798;SDS011;19250;42.646;26.980;2022-11-15T06:00:02;31.95;;;25.60;;
12798;SDS011;19250;42.646;26.980;2022-11-15T06:02:32;27.27;;;24.38;;
12798;SDS011;19250;42.646;26.980;2022-11-15T06:04:59;22.38;;;20.13;;
12798;SDS011;19250;42.646;26.980;2022-11-15T06:07:26;48.50;;;42.83;;
12798;SDS011;19250;42.646;26.980;2022-11-15T06:09:55;41.33;;;37.50;;
12798;SDS011;19250;42.646;26.980;2022-11-15T06:12:22;39.55;;;34.50;;
12798;SDS011;19250;42.646;26.980;2022-11-15T06:14:49;19.07;;;15.07;;
12798;SDS011;19250;42.646;26.980;2022-11-15T06:17:16;46.13;;;36.83;;
12798;SDS011;19250;42.646;26.980;2022-11-15T06:19:45;25.20;;;21.00;;
12798;SDS011;19250;42.646;26.980;2022-11-15T06:22:12;33.28;;;30.05;;
12798;SDS011;19250;42.646;26.980;2022-11-15T06:24:40;19.92;;;17.83;;
12798;SDS011;19250;42.646;26.980;2022-11-15T06:27:09;23.20;;;20.25;;
12798;SDS011;19250;42.646;26.980;2022-11-15T06:29:37;16.07;;;13.80;;
12798;SDS011;19250;42.646;26.980;2022-11-15T06:32:04;19.15;;;16.08;;
12798;SDS011;19250;42.646;26.980;2022-11-15T06:34:31;19.90;;;15.77;;
12798;SDS011;19250;42.646;26.980;2022-11-15T06:37:02;18.58;;;15.02;;
12798;SDS011;19250;42.646;26.980;2022-11-15T06:39:29;18.58;;;16.20;;
12798;SDS011;19250;42.646;26.980;2022-11-15T06:41:56;17.77;;;15.90;;
12798;SDS011;19250;42.646;26.980;2022-11-15T06:44:24;18.02;;;16.27;;
12798;SDS011;19250;42.646;26.980;2022-11-15T06:46:51;41.63;;;34.28;;
12798;SDS011;19250;42.646;26.980;2022-11-15T06:49:18;64.03;;;52.38;;
12798;SDS011;19250;42.646;26.980;2022-11-15T06:51:46;19.42;;;16.58;;
12798;SDS011;19250;42.646;26.980;2022-11-15T06:54:14;20.67;;;17.55;;
12798;SDS011;19250;42.646;26.980;2022-11-15T06:56:42;21.95;;;19.80;;
12798;SDS011;19250;42.646;26.980;2022-11-15T06:59:09;14.90;;;12.20;;
12798;SDS011;19250;42.646;26.980;2022-11-15T07:01:36;16.80;;;12.70;;
12798;SDS011;19250;42.646;26.980;2022-11-15T07:04:04;13.30;;;10.65;;
12798;SDS011;19250;42.646;26.980;2022-11-15T07:06:31;18.43;;;15.27;;
12798;SDS011;19250;42.646;26.980;2022-11-15T07:08:58;20.45;;;14.73;;
12798;SDS011;19250;42.646;26.980;2022-11-15T07:11:27;21.80;;;16.67;;
12798;SDS011;19250;42.646;26.980;2022-11-15T07:13:54;15.65;;;11.95;;
12798;SDS011;19250;42.646;26.980;2022-11-15T07:16:21;15.75;;;13.10;;
12798;SDS011;19250;42.646;26.980;2022-11-15T07:18:49;16.20;;;14.40;;
12798;SDS011;19250;42.646;26.980;2022-11-15T07:21:16;15.82;;;13.65;;
12798;SDS011;19250;42.646;26.980;2022-11-15T07:23:43;19.20;;;16.60;;
12798;SDS011;19250;42.646;26.980;2022-11-15T07:26:10;18.33;;;16.37;;
12798;SDS011;19250;42.646;26.980;2022-11-15T07:28:39;23.58;;;20.77;;
12798;SDS011;19250;42.646;26.980;2022-11-15T07:31:07;14.17;;;11.57;;
12798;SDS011;19250;42.646;26.980;2022-11-15T07:33:35;22.05;;;19.90;;
12798;SDS011;19250;42.646;26.980;2022-11-15T07:36:03;18.58;;;16.67;;
12798;SDS011;19250;42.646;26.980;2022-11-15T07:38:32;23.00;;;20.60;;
12798;SDS011;19250;42.646;26.980;2022-11-15T07:41:01;21.30;;;16.08;;
12798;SDS011;19250;42.646;26.980;2022-11-15T07:43:30;15.00;;;13.02;;
12798;SDS011;19250;42.646;26.980;2022-11-15T07:46:03;21.58;;;17.77;;
12798;SDS011;19250;42.646;26.980;2022-11-15T07:48:32;52.42;;;46.72;;
12798;SDS011;19250;42.646;26.980;2022-11-15T07:51:00;24.70;;;22.30;;
12798;SDS011;19250;42.646;26.980;2022-11-15T07:53:27;13.23;;;11.10;;
12798;SDS011;19250;42.646;26.980;2022-11-15T07:55:54;12.00;;;10.80;;
12798;SDS011;19250;42.646;26.980;2022-11-15T07:58:21;15.03;;;13.47;;
12798;SDS011;19250;42.646;26.980;2022-11-15T08:00:49;15.25;;;12.77;;
12798;SDS011;19250;42.646;26.980;2022-11-15T08:03:17;13.60;;;11.63;;
12798;SDS011;19250;42.646;26.980;2022-11-15T08:05:49;19.10;;;17.02;;
12798;SDS011;19250;42.646;26.980;2022-11-15T08:08:17;15.48;;;13.13;;
12798;SDS011;19250;42.646;26.980;2022-11-15T08:10:45;13.98;;;12.48;;
12798;SDS011;19250;42.646;26.980;2022-11-15T08:13:13;13.20;;;11.80;;
12798;SDS011;19250;42.646;26.980;2022-11-15T08:15:40;14.07;;;12.63;;
12798;SDS011;19250;42.646;26.980;2022-11-15T08:18:09;15.02;;;13.43;;
12798;SDS011;19250;42.646;26.980;2022-11-15T08:20:39;18.17;;;16.38;;
12798;SDS011;19250;42.646;26.980;2022-11-15T08:23:07;12.93;;;11.05;;
12798;SDS011;19250;42.646;26.980;2022-11-15T08:25:36;12.23;;;10.97;;
12798;SDS011;19250;42.646;26.980;2022-11-15T08:28:05;17.08;;;14.63;;
12798;SDS011;19250;42.646;26.980;2022-11-15T08:30:34;16.33;;;14.73;;
12798;SDS011;19250;42.646;26.980;2022-11-15T08:33:04;14.18;;;12.75;;
12798;SDS011;19250;42.646;26.980;2022-11-15T08:35:31;16.52;;;14.68;;
12798;SDS011;19250;42.646;26.980;2022-11-15T08:38:00;23.95;;;21.35;;
12798;SDS011;19250;42.646;26.980;2022-11-15T08:40:27;14.98;;;13.48;;
12798;SDS011;19250;42.646;26.980;2022-11-15T08:42:54;15.43;;;13.88;;
12798;SDS011;19250;42.646;26.980;2022-11-15T08:45:21;12.80;;;11.50;;
12798;SDS011;19250;42.646;26.980;2022-11-15T08:47:49;15.07;;;13.57;;
12798;SDS011;19250;42.646;26.980;2022-11-15T08:50:16;11.95;;;10.75;;
12798;SDS011;19250;42.646;26.980;2022-11-15T08:52:43;11.93;;;10.73;;
12798;SDS011;19250;42.646;26.980;2022-11-15T08:55:12;12.43;;;10.87;;
12798;SDS011;19250;42.646;26.980;2022-11-15T08:57:39;14.88;;;12.80;;
12798;SDS011;19250;42.646;26.980;2022-11-15T09:00:07;11.75;;;10.48;;
12798;SDS011;19250;42.646;26.980;2022-11-15T09:02:37;11.35;;;10.15;;
12798;SDS011;19250;42.646;26.980;2022-11-15T09:05:05;13.95;;;11.88;;
12798;SDS011;19250;42.646;26.980;2022-11-15T09:07:33;11.73;;;10.48;;
12798;SDS011;19250;42.646;26.980;2022-11-15T09:10:00;13.07;;;11.73;;
12798;SDS011;19250;42.646;26.980;2022-11-15T09:12:29;12.45;;;11.15;;
12798;SDS011;19250;42.646;26.980;2022-11-15T09:14:57;14.55;;;12.88;;
12798;SDS011;19250;42.646;26.980;2022-11-15T09:17:24;14.18;;;12.48;;
12798;SDS011;19250;42.646;26.980;2022-11-15T09:19:51;11.68;;;10.35;;
12798;SDS011;19250;42.646;26.980;2022-11-15T09:22:19;13.95;;;12.55;;
12798;SDS011;19250;42.646;26.980;2022-11-15T09:24:46;16.77;;;15.18;;
12798;SDS011;19250;42.646;26.980;2022-11-15T09:27:13;14.17;;;12.03;;
12798;SDS011;19250;42.646;26.980;2022-11-15T09:29:42;14.57;;;12.70;;
12798;SDS011;19250;42.646;26.980;2022-11-15T09:32:09;12.50;;;11.10;;
12798;SDS011;19250;42.646;26.980;2022-11-15T09:34:36;27.25;;;24.52;;
12798;SDS011;19250;42.646;26.980;2022-11-15T09:37:03;15.57;;;13.85;;
12798;SDS011;19250;42.646;26.980;2022-11-15T09:39:31;13.20;;;11.80;;
12798;SDS011;19250;42.646;26.980;2022-11-15T09:42:01;18.63;;;13.48;;
12798;SDS011;19250;42.646;26.980;2022-11-15T09:44:45;25.92;;;23.23;;
12798;SDS011;19250;42.646;26.980;2022-11-15T09:47:32;13.43;;;12.02;;
12798;SDS011;19250;42.646;26.980;2022-11-15T09:50:32;13.55;;;12.15;;
12798;SDS011;19250;42.646;26.980;2022-11-15T09:53:03;15.00;;;11.00;;
12798;SDS011;19250;42.646;26.980;2022-11-15T09:55:32;14.02;;;12.63;;
12798;SDS011;19250;42.646;26.980;2022-11-15T09:58:10;15.77;;;13.98;;
12798;SDS011;19250;42.646;26.980;2022-11-15T10:00:49;14.18;;;12.63;;
12798;SDS011;19250;42.646;26.980;2022-11-15T10:03:22;12.83;;;11.33;;
12798;SDS011;19250;42.646;26.980;2022-11-15T10:05:55;29.52;;;26.85;;
12798;SDS011;19250;42.646;26.980;2022-11-15T10:08:43;21.15;;;18.30;;
12798;SDS011;19250;42.646;26.980;2022-11-15T10:11:23;16.52;;;14.82;;
12798;SDS011;19250;42.646;26.980;2022-11-15T10:13:53;15.43;;;13.88;;
12798;SDS011;19250;42.646;26.980;2022-11-15T10:16:30;23.00;;;20.80;;
12798;SDS011;19250;42.646;26.980;2022-11-15T10:19:32;16.00;;;14.38;;
12798;SDS011;19250;42.646;26.980;2022-11-15T10:22:11;17.73;;;14.88;;
12798;SDS011;19250;42.646;26.980;2022-11-15T10:24:50;16.52;;;14.82;;
12798;SDS011;19250;42.646;26.980;2022-11-15T10:27:25;16.90;;;14.77;;
12798;SDS011;19250;42.646;26.980;2022-11-15T10:29:53;18.53;;;15.57;;
12798;SDS011;19250;42.646;26.980;2022-11-15T10:32:21;16.60;;;14.88;;
12798;SDS011;19250;42.646;26.980;2022-11-15T10:34:49;16.95;;;14.98;;
12798;SDS011;19250;42.646;26.980;2022-11-15T10:37:26;16.17;;;14.35;;
12798;SDS011;19250;42.646;26.980;2022-11-15T10:40:05;17.10;;;15.40;;
12798;SDS011;19250;42.646;26.980;2022-11-15T10:42:40;18.93;;;16.93;;
12798;SDS011;19250;42.646;26.980;2022-11-15T10:45:14;17.92;;;15.88;;
12798;SDS011;19250;42.646;26.980;2022-11-15T10:47:51;18.02;;;15.82;;
12798;SDS011;19250;42.646;26.980;2022-11-15T10:50:26;16.38;;;14.40;;
12798;SDS011;19250;42.646;26.980;2022-11-15T10:52:56;20.50;;;18.40;;
12798;SDS011;19250;42.646;26.980;2022-11-15T10:55:26;17.13;;;15.30;;
12798;SDS011;19250;42.646;26.980;2022-11-15T10:58:02;35.28;;;32.25;;
12798;SDS011;19250;42.646;26.980;2022-11-15T11:00:33;20.85;;;17.58;;
12798;SDS011;19250;42.646;26.980;2022-11-15T11:03:05;20.40;;;18.40;;
12798;SDS011;19250;42.646;26.980;2022-11-15T11:05:47;18.02;;;15.60;;
12798;SDS011;19250;42.646;26.980;2022-11-15T11:08:21;25.90;;;21.10;;
12798;SDS011;19250;42.646;26.980;2022-11-15T11:10:54;21.87;;;19.53;;
12798;SDS011;19250;42.646;26.980;2022-11-15T11:13:22;19.02;;;16.95;;
12798;SDS011;19250;42.646;26.980;2022-11-15T11:15:52;19.90;;;17.85;;
12798;SDS011;19250;42.646;26.980;2022-11-15T11:18:26;15.65;;;13.82;;
12798;SDS011;19250;42.646;26.980;2022-11-15T11:21:02;20.13;;;17.88;;
12798;SDS011;19250;42.646;26.980;2022-11-15T11:23:44;17.73;;;15.93;;
12798;SDS011;19250;42.646;26.980;2022-11-15T11:29:15;18.23;;;16.33;;
12798;SDS011;19250;42.646;26.980;2022-11-15T11:31:54;25.33;;;22.63;;
12798;SDS011;19250;42.646;26.980;2022-11-15T11:34:36;38.95;;;21.20;;
12798;SDS011;19250;42.646;26.980;2022-11-15T11:37:14;18.00;;;16.10;;
12798;SDS011;19250;42.646;26.980;2022-11-15T11:39:51;20.40;;;18.20;;
12798;SDS011;19250;42.646;26.980;2022-11-15T11:42:30;25.40;;;21.00;;
12798;SDS011;19250;42.646;26.980;2022-11-15T11:45:10;21.60;;;19.40;;
12798;SDS011;19250;42.646;26.980;2022-11-15T11:47:46;20.75;;;18.58;;
12798;SDS011;19250;42.646;26.980;2022-11-15T11:50:19;18.90;;;17.00;;
12798;SDS011;19250;42.646;26.980;2022-11-15T11:52:52;21.05;;;18.83;;
12798;SDS011;19250;42.646;26.980;2022-11-15T11:55:26;18.45;;;16.48;;
12798;SDS011;19250;42.646;26.980;2022-11-15T11:58:01;18.38;;;16.58;;
12798;SDS011;19250;42.646;26.980;2022-11-15T12:00:33;20.60;;;18.60;;
12798;SDS011;19250;42.646;26.980;2022-11-15T12:03:11;21.13;;;19.13;;
12798;SDS011;19250;42.646;26.980;2022-11-15T12:05:44;23.17;;;20.88;;
12798;SDS011;19250;42.646;26.980;2022-11-15T12:11:09;18.67;;;16.85;;
12798;SDS011;19250;42.646;26.980;2022-11-15T12:13:39;19.17;;;17.30;;
12798;SDS011;19250;42.646;26.980;2022-11-15T12:16:11;20.45;;;18.45;;
12798;SDS011;19250;42.646;26.980;2022-11-15T12:18:42;18.40;;;16.63;;
12798;SDS011;19250;42.646;26.980;2022-11-15T12:21:16;16.88;;;15.18;;
12798;SDS011;19250;42.646;26.980;2022-11-15T12:23:52;19.57;;;17.67;;
12798;SDS011;19250;42.646;26.980;2022-11-15T12:26:25;17.40;;;15.60;;
12798;SDS011;19250;42.646;26.980;2022-11-15T12:28:58;20.23;;;18.23;;
12798;SDS011;19250;42.646;26.980;2022-11-15T12:31:30;20.77;;;18.57;;
12798;SDS011;19250;42.646;26.980;2022-11-15T12:34:12;22.80;;;20.48;;
12798;SDS011;19250;42.646;26.980;2022-11-15T12:36:44;17.40;;;15.50;;
12798;SDS011;19250;42.646;26.980;2022-11-15T12:39:11;16.75;;;15.10;;
12798;SDS011;19250;42.646;26.980;2022-11-15T12:41:40;28.95;;;24.50;;
12798;SDS011;19250;42.646;26.980;2022-11-15T12:44:10;29.77;;;26.57;;
12798;SDS011;19250;42.646;26.980;2022-11-15T12:49:48;28.75;;;25.63;;
12798;SDS011;19250;42.646;26.980;2022-11-15T12:52:18;30.93;;;27.63;;
12798;SDS011;19250;42.646;26.980;2022-11-15T12:54:56;25.65;;;22.95;;
12798;SDS011;19250;42.646;26.980;2022-11-15T12:57:30;19.85;;;17.85;;
12798;SDS011;19250;42.646;26.980;2022-11-15T13:00:20;23.35;;;20.95;;
12798;SDS011;19250;42.646;26.980;2022-11-15T13:03:17;21.97;;;19.67;;
12798;SDS011;19250;42.646;26.980;2022-11-15T13:05:55;18.58;;;16.67;;
12798;SDS011;19250;42.646;26.980;2022-11-15T13:17:12;21.38;;;18.95;;
12798;SDS011;19250;42.646;26.980;2022-11-15T13:20:00;18.85;;;16.90;;
12798;SDS011;19250;42.646;26.980;2022-11-15T13:22:46;19.45;;;17.42;;
12798;SDS011;19250;42.646;26.980;2022-11-15T13:25:42;22.77;;;20.38;;
12798;SDS011;19250;42.646;26.980;2022-11-15T13:28:31;20.38;;;18.35;;
12798;SDS011;19250;42.646;26.980;2022-11-15T13:31:01;25.10;;;22.58;;
12798;SDS011;19250;42.646;26.980;2022-11-15T13:33:31;29.35;;;25.73;;
12798;SDS011;19250;42.646;26.980;2022-11-15T13:36:00;31.77;;;27.02;;
12798;SDS011;19250;42.646;26.980;2022-11-15T13:38:30;34.95;;;27.02;;
12798;SDS011;19250;42.646;26.980;2022-11-15T13:41:13;34.05;;;27.48;;
12798;SDS011;19250;42.646;26.980;2022-11-15T13:43:45;21.60;;;19.30;;
12798;SDS011;19250;42.646;26.980;2022-11-15T13:46:13;24.08;;;21.20;;
12798;SDS011;19250;42.646;26.980;2022-11-15T13:48:44;30.30;;;27.03;;
12798;SDS011;19250;42.646;26.980;2022-11-15T13:51:15;41.05;;;29.45;;
12798;SDS011;19250;42.646;26.980;2022-11-15T13:53:47;102.03;;;85.72;;
12798;SDS011;19250;42.646;26.980;2022-11-15T13:56:19;39.80;;;32.22;;
12798;SDS011;19250;42.646;26.980;2022-11-15T13:58:47;31.10;;;25.63;;
12798;SDS011;19250;42.646;26.980;2022-11-15T14:01:16;37.35;;;32.03;;
12798;SDS011;19250;42.646;26.980;2022-11-15T14:03:50;39.10;;;32.40;;
12798;SDS011;19250;42.646;26.980;2022-11-15T14:06:23;32.47;;;26.55;;
12798;SDS011;19250;42.646;26.980;2022-11-15T14:08:59;42.13;;;34.92;;
12798;SDS011;19250;42.646;26.980;2022-11-15T14:11:31;42.63;;;36.83;;
12798;SDS011;19250;42.646;26.980;2022-11-15T14:14:13;44.53;;;37.58;;
12798;SDS011;19250;42.646;26.980;2022-11-15T14:16:42;45.90;;;40.90;;
12798;SDS011;19250;42.646;26.980;2022-11-15T14:19:11;37.08;;;32.53;;
12798;SDS011;19250;42.646;26.980;2022-11-15T14:22:09;37.97;;;32.80;;
12798;SDS011;19250;42.646;26.980;2022-11-15T14:24:39;39.08;;;34.88;;
12798;SDS011;19250;42.646;26.980;2022-11-15T14:27:22;42.90;;;35.92;;
12798;SDS011;19250;42.646;26.980;2022-11-15T14:29:51;43.78;;;38.88;;
12798;SDS011;19250;42.646;26.980;2022-11-15T14:32:20;48.45;;;42.53;;
12798;SDS011;19250;42.646;26.980;2022-11-15T14:34:53;70.83;;;60.67;;
12798;SDS011;19250;42.646;26.980;2022-11-15T14:37:22;60.38;;;49.70;;
12798;SDS011;19250;42.646;26.980;2022-11-15T14:39:50;74.75;;;65.82;;
12798;SDS011;19250;42.646;26.980;2022-11-15T14:42:18;380.77;;;342.48;;
12798;SDS011;19250;42.646;26.980;2022-11-15T14:44:48;161.43;;;131.10;;
12798;SDS011;19250;42.646;26.980;2022-11-15T14:47:16;122.13;;;103.13;;
12798;SDS011;19250;42.646;26.980;2022-11-15T14:49:43;137.65;;;122.70;;
12798;SDS011;19250;42.646;26.980;2022-11-15T14:52:16;115.53;;;102.97;;
12798;SDS011;19250;42.646;26.980;2022-11-15T14:54:51;79.65;;;67.07;;
12798;SDS011;19250;42.646;26.980;2022-11-15T14:57:18;124.38;;;101.75;;
12798;SDS011;19250;42.646;26.980;2022-11-15T14:59:47;76.53;;;65.80;;